createdAt,value
2019-06-20T00:00:55.849Z,17.86
2019-06-20T00:01:55.850Z,17.84
2019-06-20T00:02:55.823Z,17.78
2019-06-20T00:03:55.814Z,17.86
2019-06-20T00:04:55.825Z,17.87
2019-06-20T00:05:55.792Z,17.86
2019-06-20T00:06:55.796Z,17.92
2019-06-20T00:07:55.771Z,17.93
2019-06-20T00:09:00.815Z,17.96
2019-06-20T00:09:55.755Z,18.11
2019-06-20T00:10:55.739Z,18.08
2019-06-20T00:11:55.738Z,18.10
2019-06-20T00:13:00.356Z,18.14
2019-06-20T00:13:56.700Z,18.12
2019-06-20T00:14:55.710Z,18.15
2019-06-20T00:15:55.687Z,18.17
2019-06-20T00:16:59.314Z,18.11
2019-06-20T00:17:55.664Z,18.11
2019-06-20T00:18:55.648Z,18.17
2019-06-20T00:20:00.675Z,18.15
2019-06-20T00:20:55.629Z,18.14
2019-06-20T00:21:55.626Z,18.15
2019-06-20T00:22:55.603Z,18.20
2019-06-20T00:23:55.602Z,18.18
2019-06-20T00:24:55.610Z,18.27
2019-06-20T00:25:55.576Z,18.29
2019-06-20T00:26:55.556Z,18.30
2019-06-20T00:27:55.551Z,18.32
2019-06-20T00:28:55.537Z,18.36
2019-06-20T00:29:55.551Z,18.37
2019-06-20T00:31:00.543Z,18.37
2019-06-20T00:31:55.531Z,18.41
2019-06-20T00:32:55.494Z,18.41
2019-06-20T00:33:55.487Z,18.44
2019-06-20T00:34:55.510Z,18.39
2019-06-20T00:35:55.462Z,18.41
2019-06-20T00:36:55.457Z,18.25
2019-06-20T00:37:55.437Z,18.29
2019-06-20T00:38:55.433Z,18.26
2019-06-20T00:39:55.423Z,18.21
2019-06-20T00:40:55.410Z,18.32
2019-06-20T00:42:00.430Z,18.32
2019-06-20T00:42:55.393Z,18.30
2019-06-20T00:43:55.378Z,18.32
2019-06-20T00:44:55.371Z,18.35
2019-06-20T00:45:55.360Z,18.36
2019-06-20T00:46:55.352Z,18.27
2019-06-20T00:47:55.332Z,18.29
2019-06-20T00:48:55.337Z,18.30
2019-06-20T00:49:55.339Z,18.32
2019-06-20T00:50:55.290Z,18.29
2019-06-20T00:51:55.280Z,18.29
2019-06-20T00:53:00.309Z,18.29
2019-06-20T00:53:55.265Z,18.33
2019-06-20T00:54:55.250Z,18.37
2019-06-20T00:55:55.280Z,18.33
2019-06-20T00:56:55.224Z,18.33
2019-06-20T00:57:55.214Z,18.30
2019-06-20T00:58:55.218Z,18.30
2019-06-20T00:59:55.214Z,18.21
2019-06-20T01:00:55.193Z,18.25
2019-06-20T01:01:55.180Z,18.18
2019-06-20T01:02:55.160Z,18.18
2019-06-20T01:04:00.175Z,18.17
2019-06-20T01:04:55.145Z,18.18
2019-06-20T01:05:55.141Z,18.15
2019-06-20T01:06:55.114Z,18.17
2019-06-20T01:07:55.108Z,18.14
2019-06-20T01:08:55.095Z,18.15
2019-06-20T01:09:55.089Z,18.18
2019-06-20T01:10:55.087Z,18.30
2019-06-20T01:11:55.078Z,18.27
2019-06-20T01:12:55.051Z,18.27
2019-06-20T01:13:55.038Z,18.29
2019-06-20T01:15:00.050Z,18.23
2019-06-20T01:15:55.048Z,18.33
2019-06-20T01:16:55.010Z,18.25
2019-06-20T01:17:54.992Z,18.25
2019-06-20T01:18:54.981Z,18.25
2019-06-20T01:19:58.146Z,18.23
2019-06-20T01:20:54.977Z,18.35
2019-06-20T01:21:54.999Z,18.25
2019-06-20T01:22:54.956Z,18.20
2019-06-20T01:23:54.927Z,18.18
2019-06-20T01:24:54.920Z,18.33
2019-06-20T01:25:59.938Z,18.30
2019-06-20T01:26:54.896Z,18.35
2019-06-20T01:27:54.883Z,18.32
2019-06-20T01:28:54.871Z,18.29
2019-06-20T01:29:54.869Z,18.36
2019-06-20T01:30:54.859Z,18.29
2019-06-20T01:31:54.839Z,18.35
2019-06-20T01:32:54.830Z,18.27
2019-06-20T01:33:54.847Z,18.30
2019-06-20T01:34:54.805Z,18.26
2019-06-20T01:35:54.818Z,18.23
2019-06-20T01:36:59.808Z,18.20
2019-06-20T01:37:54.771Z,18.35
2019-06-20T01:38:54.775Z,18.30
2019-06-20T01:39:54.762Z,18.20
2019-06-20T01:40:54.761Z,18.32
2019-06-20T01:41:54.730Z,18.17
2019-06-20T01:42:54.718Z,18.20
2019-06-20T01:43:54.709Z,18.30
2019-06-20T01:44:54.707Z,18.27
2019-06-20T01:45:54.721Z,18.32
2019-06-20T01:46:54.685Z,18.23
2019-06-20T01:47:59.683Z,18.21
2019-06-20T01:48:54.652Z,18.25
2019-06-20T01:49:54.639Z,18.18
2019-06-20T01:50:54.634Z,18.17
2019-06-20T01:51:54.661Z,18.18
2019-06-20T01:52:54.614Z,18.21
2019-06-20T01:53:54.594Z,18.21
2019-06-20T01:54:54.592Z,18.23
2019-06-20T01:55:54.576Z,18.36
2019-06-20T01:56:54.582Z,18.33
2019-06-20T01:57:54.551Z,18.27
2019-06-20T01:58:59.568Z,18.23
2019-06-20T01:59:54.529Z,18.29
2019-06-20T02:00:54.599Z,18.32
2019-06-20T02:01:54.520Z,18.29
2019-06-20T02:02:54.500Z,18.29
2019-06-20T02:03:54.492Z,18.32
2019-06-20T02:04:54.471Z,18.32
2019-06-20T02:05:54.460Z,18.29
2019-06-20T02:06:54.464Z,18.27
2019-06-20T02:07:54.438Z,18.32
2019-06-20T02:08:54.428Z,18.26
2019-06-20T02:09:59.447Z,18.26
2019-06-20T02:10:54.404Z,18.35
2019-06-20T02:11:54.407Z,18.32
2019-06-20T02:12:54.382Z,18.26
2019-06-20T02:14:06.907Z,18.32
2019-06-20T02:14:55.358Z,18.32
2019-06-20T02:15:54.375Z,18.32
2019-06-20T02:16:54.348Z,18.35
2019-06-20T02:17:54.345Z,18.29
2019-06-20T02:18:54.323Z,18.33
2019-06-20T02:19:54.308Z,18.25
2019-06-20T02:20:59.393Z,18.25
2019-06-20T02:21:54.312Z,18.26
2019-06-20T02:22:54.269Z,18.25
2019-06-20T02:23:54.267Z,18.20
2019-06-20T02:24:54.245Z,18.17
2019-06-20T02:25:54.253Z,18.15
2019-06-20T02:26:54.239Z,18.15
2019-06-20T02:27:54.214Z,18.12
2019-06-20T02:28:54.202Z,18.10
2019-06-20T02:29:54.192Z,18.17
2019-06-20T02:30:54.188Z,18.20
2019-06-20T02:31:59.211Z,18.20
2019-06-20T02:32:54.157Z,18.20
2019-06-20T02:33:54.147Z,18.15
2019-06-20T02:34:54.138Z,18.21
2019-06-20T02:35:54.136Z,18.25
2019-06-20T02:36:54.133Z,18.20
2019-06-20T02:37:54.130Z,18.14
2019-06-20T02:38:54.090Z,18.18
2019-06-20T02:39:54.081Z,18.21
2019-06-20T02:40:54.078Z,18.10
2019-06-20T02:41:54.072Z,18.12
2019-06-20T02:42:59.075Z,18.20
2019-06-20T02:43:54.037Z,18.12
2019-06-20T02:44:54.026Z,18.17
2019-06-20T02:45:54.077Z,18.03
2019-06-20T02:46:54.016Z,18.11
2019-06-20T02:47:54.002Z,18.05
2019-06-20T02:48:53.979Z,18.05
2019-06-20T02:49:53.988Z,18.10
2019-06-20T02:50:53.961Z,18.07
2019-06-20T02:51:53.987Z,18.07
2019-06-20T02:52:54.043Z,18.05
2019-06-20T02:53:58.952Z,18.05
2019-06-20T02:54:53.920Z,18.03
2019-06-20T02:55:53.909Z,18.07
2019-06-20T02:56:53.906Z,18.02
2019-06-20T02:57:53.884Z,17.99
2019-06-20T02:58:53.870Z,17.96
2019-06-20T02:59:53.865Z,17.95
2019-06-20T03:00:53.862Z,17.97
2019-06-20T03:01:53.846Z,18.03
2019-06-20T03:02:53.832Z,18.08
2019-06-20T03:03:53.819Z,18.03
2019-06-20T03:04:58.830Z,18.00
2019-06-20T03:05:53.814Z,18.11
2019-06-20T03:06:53.808Z,18.17
2019-06-20T03:07:53.775Z,18.17
2019-06-20T03:08:53.760Z,18.15
2019-06-20T03:09:53.761Z,18.21
2019-06-20T03:10:53.747Z,18.25
2019-06-20T03:11:53.740Z,18.29
2019-06-20T03:12:53.726Z,18.27
2019-06-20T03:13:53.703Z,18.29
2019-06-20T03:14:53.693Z,18.32
2019-06-20T03:15:58.713Z,18.37
2019-06-20T03:16:53.679Z,18.32
2019-06-20T03:17:53.675Z,18.33
2019-06-20T03:18:53.659Z,18.42
2019-06-20T03:19:53.647Z,18.44
2019-06-20T03:20:53.635Z,18.47
2019-06-20T03:21:53.615Z,18.50
2019-06-20T03:22:53.620Z,18.47
2019-06-20T03:23:53.623Z,18.39
2019-06-20T03:24:53.584Z,18.48
2019-06-20T03:25:53.576Z,18.47
2019-06-20T03:26:58.589Z,18.48
2019-06-20T03:27:53.567Z,18.36
2019-06-20T03:28:53.539Z,18.33
2019-06-20T03:29:53.531Z,18.33
2019-06-20T03:30:53.547Z,18.37
2019-06-20T03:31:53.554Z,18.41
2019-06-20T03:32:53.513Z,18.48
2019-06-20T03:33:53.554Z,18.44
2019-06-20T03:34:53.507Z,18.42
2019-06-20T03:35:53.459Z,18.35
2019-06-20T03:36:53.449Z,18.39
2019-06-20T03:37:58.476Z,18.45
2019-06-20T03:38:53.428Z,18.47
2019-06-20T03:39:53.426Z,18.44
2019-06-20T03:40:53.409Z,18.42
2019-06-20T03:41:53.410Z,18.45
2019-06-20T03:42:53.411Z,18.33
2019-06-20T03:43:53.379Z,18.47
2019-06-20T03:45:02.309Z,18.45
2019-06-20T03:45:54.362Z,18.42
2019-06-20T03:46:53.340Z,18.42
2019-06-20T03:47:53.341Z,18.45
2019-06-20T03:48:58.339Z,18.42
2019-06-20T03:49:53.302Z,18.44
2019-06-20T03:50:53.302Z,18.48
2019-06-20T03:51:53.283Z,18.45
2019-06-20T03:52:53.283Z,18.47
2019-06-20T03:53:53.261Z,18.39
2019-06-20T03:54:53.247Z,18.54
2019-06-20T03:55:53.258Z,18.39
2019-06-20T03:56:53.234Z,18.50
2019-06-20T03:57:53.244Z,18.52
2019-06-20T03:58:53.216Z,18.58
2019-06-20T03:59:58.233Z,18.52
2019-06-20T04:00:53.195Z,18.54
2019-06-20T04:01:53.188Z,18.58
2019-06-20T04:02:53.158Z,18.62
2019-06-20T04:03:53.159Z,18.62
2019-06-20T04:04:53.143Z,18.65
2019-06-20T04:05:53.132Z,18.58
2019-06-20T04:06:53.128Z,18.60
2019-06-20T04:07:53.122Z,18.66
2019-06-20T04:08:53.116Z,18.65
2019-06-20T04:09:53.091Z,18.62
2019-06-20T04:10:58.091Z,18.81
2019-06-20T04:11:53.059Z,18.65
2019-06-20T04:12:53.065Z,18.78
2019-06-20T04:13:53.058Z,18.75
2019-06-20T04:14:53.033Z,18.76
2019-06-20T04:15:53.014Z,18.80
2019-06-20T04:16:53.005Z,18.80
2019-06-20T04:17:52.995Z,18.85
2019-06-20T04:18:53.015Z,18.76
2019-06-20T04:19:52.985Z,18.73
2019-06-20T04:20:52.972Z,18.82
2019-06-20T04:21:57.970Z,18.76
2019-06-20T04:22:52.947Z,18.87
2019-06-20T04:23:52.966Z,18.87
2019-06-20T04:24:52.927Z,18.94
2019-06-20T04:25:52.925Z,18.99
2019-06-20T04:26:52.890Z,18.92
2019-06-20T04:27:52.900Z,18.91
2019-06-20T04:28:52.884Z,18.90
2019-06-20T04:29:52.860Z,18.85
2019-06-20T04:30:52.863Z,18.92
2019-06-20T04:31:52.838Z,18.92
2019-06-20T04:32:57.847Z,19.00
2019-06-20T04:33:52.823Z,18.94
2019-06-20T04:34:52.800Z,19.00
2019-06-20T04:35:52.802Z,19.06
2019-06-20T04:36:52.802Z,19.11
2019-06-20T04:37:52.769Z,19.02
2019-06-20T04:38:52.765Z,19.21
2019-06-20T04:39:52.746Z,19.16
2019-06-20T04:40:52.732Z,19.16
2019-06-20T04:41:52.733Z,19.21
2019-06-20T04:42:52.723Z,19.19
2019-06-20T04:43:57.746Z,19.22
2019-06-20T04:44:52.691Z,19.23
2019-06-20T04:45:52.677Z,19.31
2019-06-20T04:46:52.672Z,19.43
2019-06-20T04:47:52.657Z,19.40
2019-06-20T04:48:52.677Z,19.47
2019-06-20T04:49:52.638Z,19.54
2019-06-20T04:50:52.623Z,19.46
2019-06-20T04:51:52.612Z,19.55
2019-06-20T04:52:52.599Z,19.63
2019-06-20T04:53:52.610Z,19.59
2019-06-20T04:54:57.601Z,19.62
2019-06-20T04:55:52.572Z,19.54
2019-06-20T04:56:52.554Z,19.58
2019-06-20T04:57:52.546Z,19.65
2019-06-20T04:58:52.543Z,19.73
2019-06-20T04:59:52.553Z,19.74
2019-06-20T05:00:52.514Z,19.81
2019-06-20T05:01:52.509Z,19.76
2019-06-20T05:02:52.499Z,19.81
2019-06-20T05:03:52.485Z,19.83
2019-06-20T05:04:52.496Z,19.84
2019-06-20T05:05:57.481Z,19.88
2019-06-20T05:06:52.443Z,19.92
2019-06-20T05:07:52.442Z,19.99
2019-06-20T05:08:52.446Z,19.88
2019-06-20T05:09:52.435Z,19.86
2019-06-20T05:10:52.413Z,19.81
2019-06-20T05:11:52.391Z,19.92
2019-06-20T05:12:55.853Z,19.98
2019-06-20T05:13:52.399Z,20.10
2019-06-20T05:14:52.545Z,20.11
2019-06-20T05:15:53.411Z,20.10
2019-06-20T05:16:57.366Z,20.10
2019-06-20T05:17:52.354Z,20.20
2019-06-20T05:18:52.313Z,20.28
2019-06-20T05:19:52.319Z,20.28
2019-06-20T05:20:52.299Z,20.35
2019-06-20T05:21:52.299Z,20.32
2019-06-20T05:22:52.266Z,20.35
2019-06-20T05:23:52.255Z,20.33
2019-06-20T05:24:52.262Z,20.47
2019-06-20T05:25:52.259Z,20.41
2019-06-20T05:26:52.233Z,20.47
2019-06-20T05:27:57.261Z,20.48
2019-06-20T05:28:52.239Z,20.48
2019-06-20T05:29:52.214Z,20.50
2019-06-20T05:30:52.180Z,20.47
2019-06-20T05:31:52.173Z,20.47
2019-06-20T05:32:52.305Z,20.47
2019-06-20T05:33:52.262Z,20.54
2019-06-20T05:34:52.151Z,20.52
2019-06-20T05:35:52.141Z,20.67
2019-06-20T05:36:52.117Z,20.54
2019-06-20T05:37:52.118Z,20.69
2019-06-20T05:38:57.140Z,20.67
2019-06-20T05:39:52.095Z,20.61
2019-06-20T05:40:52.086Z,20.62
2019-06-20T05:41:52.056Z,20.64
2019-06-20T05:42:52.308Z,20.79
2019-06-20T05:43:52.058Z,20.91
2019-06-20T05:44:52.044Z,20.88
2019-06-20T05:46:08.022Z,20.88
2019-06-20T05:47:08.529Z,20.91
2019-06-20T05:47:53.006Z,20.91
2019-06-20T05:48:51.996Z,20.98
2019-06-20T05:49:57.002Z,21.09
2019-06-20T05:50:51.961Z,21.32
2019-06-20T05:51:51.957Z,21.27
2019-06-20T05:52:52.918Z,21.37
2019-06-20T05:53:51.925Z,21.46
2019-06-20T05:54:51.927Z,21.52
2019-06-20T05:55:51.903Z,21.42
2019-06-20T05:56:51.911Z,21.37
2019-06-20T05:57:51.888Z,21.28
2019-06-20T05:58:51.937Z,21.28
2019-06-20T05:59:51.878Z,21.24
2019-06-20T06:00:56.929Z,21.21
2019-06-20T06:01:51.841Z,21.25
2019-06-20T06:02:51.835Z,21.24
2019-06-20T06:03:51.833Z,21.27
2019-06-20T06:04:51.805Z,21.34
2019-06-20T06:05:51.825Z,21.42
2019-06-20T06:06:51.806Z,21.42
2019-06-20T06:07:51.790Z,21.53
2019-06-20T06:08:51.913Z,21.35
2019-06-20T06:09:51.769Z,21.35
2019-06-20T06:10:51.754Z,21.40
2019-06-20T06:11:56.762Z,21.38
2019-06-20T06:12:51.781Z,21.42
2019-06-20T06:13:51.708Z,21.46
2019-06-20T06:14:51.696Z,21.58
2019-06-20T06:15:51.704Z,21.62
2019-06-20T06:16:51.701Z,21.64
2019-06-20T06:17:51.680Z,21.62
2019-06-20T06:18:51.654Z,21.69
2019-06-20T06:19:51.652Z,21.58
2019-06-20T06:20:51.663Z,21.50
2019-06-20T06:21:51.619Z,21.74
2019-06-20T06:22:56.633Z,21.67
2019-06-20T06:23:51.636Z,21.69
2019-06-20T06:24:51.596Z,21.67
2019-06-20T06:25:51.587Z,21.77
2019-06-20T06:26:51.576Z,21.88
2019-06-20T06:27:51.563Z,21.82
2019-06-20T06:28:51.550Z,21.91
2019-06-20T06:29:51.535Z,21.86
2019-06-20T06:30:51.577Z,21.91
2019-06-20T06:31:51.520Z,21.94
2019-06-20T06:32:51.516Z,21.91
2019-06-20T06:33:56.532Z,22.00
2019-06-20T06:34:51.487Z,21.94
2019-06-20T06:35:51.495Z,21.91
2019-06-20T06:36:51.474Z,21.94
2019-06-20T06:37:51.578Z,21.99
2019-06-20T06:38:51.445Z,21.92
2019-06-20T06:39:51.456Z,21.94
2019-06-20T06:40:51.434Z,21.98
2019-06-20T06:41:51.430Z,22.15
2019-06-20T06:42:51.409Z,22.24
2019-06-20T06:43:51.418Z,22.12
2019-06-20T06:44:56.387Z,22.17
2019-06-20T06:45:51.365Z,22.21
2019-06-20T06:46:54.357Z,22.20
2019-06-20T06:47:51.329Z,22.24
2019-06-20T06:48:51.328Z,22.24
2019-06-20T06:49:51.331Z,22.27
2019-06-20T06:50:51.329Z,22.20
2019-06-20T06:51:51.289Z,22.22
2019-06-20T06:52:51.282Z,22.12
2019-06-20T06:53:51.357Z,22.20
2019-06-20T06:54:51.263Z,22.18
2019-06-20T06:55:56.301Z,22.27
2019-06-20T06:56:51.232Z,22.28
2019-06-20T06:57:51.222Z,22.24
2019-06-20T06:58:51.233Z,22.14
2019-06-20T06:59:51.205Z,22.33
2019-06-20T07:00:51.214Z,22.18
2019-06-20T07:01:51.173Z,22.06
2019-06-20T07:02:51.161Z,22.06
2019-06-20T07:03:52.027Z,22.05
2019-06-20T07:04:51.151Z,22.02
2019-06-20T07:05:51.143Z,22.00
2019-06-20T07:06:56.143Z,22.00
2019-06-20T07:07:51.126Z,21.90
2019-06-20T07:08:51.115Z,22.00
2019-06-20T07:09:51.104Z,21.98
2019-06-20T07:10:51.126Z,22.02
2019-06-20T07:11:51.080Z,21.99
2019-06-20T07:12:51.066Z,21.99
2019-06-20T07:13:51.044Z,21.99
2019-06-20T07:14:51.029Z,21.96
2019-06-20T07:15:51.019Z,21.92
2019-06-20T07:17:00.132Z,21.80
2019-06-20T07:17:57.015Z,21.74
2019-06-20T07:18:51.023Z,21.74
2019-06-20T07:19:51.009Z,21.72
2019-06-20T07:20:50.958Z,21.71
2019-06-20T07:21:50.977Z,21.75
2019-06-20T07:22:50.940Z,21.69
2019-06-20T07:23:50.941Z,21.71
2019-06-20T07:24:50.924Z,21.75
2019-06-20T07:25:50.940Z,21.75
2019-06-20T07:26:50.932Z,21.83
2019-06-20T07:27:50.900Z,21.96
2019-06-20T07:28:55.893Z,21.91
2019-06-20T07:29:50.865Z,22.07
2019-06-20T07:30:50.905Z,22.05
2019-06-20T07:31:50.882Z,22.17
2019-06-20T07:32:50.831Z,22.17
2019-06-20T07:33:50.814Z,22.25
2019-06-20T07:34:50.826Z,22.25
2019-06-20T07:35:50.825Z,22.24
2019-06-20T07:36:50.805Z,22.18
2019-06-20T07:37:51.097Z,22.24
2019-06-20T07:38:50.773Z,22.28
2019-06-20T07:39:55.766Z,22.43
2019-06-20T07:40:50.742Z,22.33
2019-06-20T07:41:50.750Z,22.33
2019-06-20T07:42:50.774Z,22.35
2019-06-20T07:43:50.728Z,22.43
2019-06-20T07:44:50.692Z,22.46
2019-06-20T07:46:02.188Z,22.40
2019-06-20T07:46:51.703Z,22.52
2019-06-20T07:47:50.711Z,22.58
2019-06-20T07:48:50.724Z,22.54
2019-06-20T07:49:50.637Z,22.46
2019-06-20T07:50:55.650Z,22.58
2019-06-20T07:51:50.631Z,22.54
2019-06-20T07:53:01.396Z,22.62
2019-06-20T07:53:51.607Z,22.57
2019-06-20T07:54:50.642Z,22.55
2019-06-20T07:55:50.581Z,22.52
2019-06-20T07:56:50.571Z,22.49
2019-06-20T07:57:50.545Z,22.61
2019-06-20T07:58:50.531Z,22.62
2019-06-20T07:59:50.525Z,22.54
2019-06-20T08:00:50.520Z,22.65
2019-06-20T08:01:55.530Z,22.64
2019-06-20T08:02:50.498Z,22.72
2019-06-20T08:03:50.486Z,22.79
2019-06-20T08:04:50.470Z,22.86
2019-06-20T08:05:50.452Z,22.98
2019-06-20T08:06:50.475Z,23.13
2019-06-20T08:07:50.442Z,23.22
2019-06-20T08:08:50.428Z,23.35
2019-06-20T08:09:50.428Z,23.46
2019-06-20T08:10:50.398Z,23.39
2019-06-20T08:11:50.399Z,23.32
2019-06-20T08:12:55.399Z,23.42
2019-06-20T08:13:50.362Z,23.60
2019-06-20T08:14:50.354Z,23.57
2019-06-20T08:15:50.352Z,23.66
2019-06-20T08:16:50.341Z,23.72
2019-06-20T08:17:50.325Z,23.70
2019-06-20T08:18:50.333Z,23.85
2019-06-20T08:19:50.314Z,23.90
2019-06-20T08:20:50.287Z,23.93
2019-06-20T08:21:50.289Z,23.90
2019-06-20T08:22:50.263Z,23.95
2019-06-20T08:23:55.293Z,24.03
2019-06-20T08:24:50.249Z,24.13
2019-06-20T08:25:50.237Z,24.24
2019-06-20T08:26:50.250Z,24.30
2019-06-20T08:27:50.247Z,24.32
2019-06-20T08:29:04.572Z,24.46
2019-06-20T08:29:51.230Z,24.43
2019-06-20T08:30:50.212Z,24.42
2019-06-20T08:31:50.180Z,24.40
2019-06-20T08:32:50.166Z,24.50
2019-06-20T08:33:50.169Z,24.47
2019-06-20T08:34:57.453Z,24.49
2019-06-20T08:35:50.133Z,24.47
2019-06-20T08:36:50.140Z,24.62
2019-06-20T08:37:50.150Z,24.80
2019-06-20T08:38:50.094Z,24.91
2019-06-20T08:39:50.076Z,25.09
2019-06-20T08:40:50.078Z,24.98
2019-06-20T08:41:50.090Z,24.98
2019-06-20T08:42:50.044Z,24.91
2019-06-20T08:43:50.032Z,25.06
2019-06-20T08:44:50.031Z,24.99
2019-06-20T08:45:56.229Z,25.10
2019-06-20T08:46:50.007Z,25.20
2019-06-20T08:47:50.020Z,25.06
2019-06-20T08:48:49.989Z,25.00
2019-06-20T08:49:49.973Z,24.93
2019-06-20T08:50:50.028Z,24.98
2019-06-20T08:51:49.954Z,24.98
2019-06-20T08:52:49.963Z,24.96
2019-06-20T08:53:49.924Z,24.99
2019-06-20T08:54:49.922Z,25.10
2019-06-20T08:55:49.905Z,25.02
2019-06-20T08:56:56.119Z,25.13
2019-06-20T08:57:49.897Z,25.20
2019-06-20T08:58:49.881Z,25.20
2019-06-20T08:59:49.861Z,25.10
2019-06-20T09:00:49.897Z,25.13
2019-06-20T09:01:49.853Z,25.10
2019-06-20T09:02:49.921Z,24.91
2019-06-20T09:03:49.830Z,24.95
2019-06-20T09:04:49.827Z,24.90
2019-06-20T09:05:49.795Z,24.85
2019-06-20T09:06:50.223Z,24.76
2019-06-20T09:07:56.489Z,24.71
2019-06-20T09:08:49.771Z,24.64
2019-06-20T09:09:49.751Z,24.62
2019-06-20T09:10:49.766Z,24.62
2019-06-20T09:11:49.744Z,24.58
2019-06-20T09:12:49.772Z,24.62
2019-06-20T09:13:49.726Z,24.71
2019-06-20T09:14:49.718Z,24.73
2019-06-20T09:15:49.701Z,24.87
2019-06-20T09:16:49.694Z,24.99
2019-06-20T09:17:49.702Z,25.02
2019-06-20T09:18:55.343Z,25.09
2019-06-20T09:19:49.654Z,25.18
2019-06-20T09:20:49.639Z,25.18
2019-06-20T09:21:49.632Z,25.27
2019-06-20T09:22:49.645Z,25.21
2019-06-20T09:23:49.608Z,25.21
2019-06-20T09:24:49.597Z,25.10
2019-06-20T09:25:50.944Z,25.25
2019-06-20T09:26:51.163Z,25.08
2019-06-20T09:27:49.608Z,25.06
2019-06-20T09:28:51.045Z,24.99
2019-06-20T09:29:54.568Z,25.06
2019-06-20T09:30:50.661Z,24.99
2019-06-20T09:31:49.514Z,25.02
2019-06-20T09:32:49.522Z,24.96
2019-06-20T09:33:49.500Z,24.95
2019-06-20T09:34:51.346Z,25.03
2019-06-20T09:35:49.471Z,25.03
2019-06-20T09:36:52.013Z,25.03
2019-06-20T09:37:50.859Z,24.95
2019-06-20T09:38:50.624Z,25.14
2019-06-20T09:39:51.551Z,25.23
2019-06-20T09:40:54.878Z,25.70
2019-06-20T09:41:51.072Z,26.29
2019-06-20T09:42:51.139Z,26.88
2019-06-20T09:43:50.072Z,27.18
2019-06-20T09:44:49.887Z,27.36
2019-06-20T09:45:49.543Z,27.34
2019-06-20T09:46:49.816Z,27.02
2019-06-20T09:47:51.777Z,26.85
2019-06-20T09:48:50.652Z,26.89
2019-06-20T09:49:52.388Z,26.85
2019-06-20T09:50:50.819Z,26.70
2019-06-20T09:51:54.340Z,26.55
2019-06-20T09:52:51.325Z,26.36
2019-06-20T09:53:49.912Z,26.18
2019-06-20T09:54:50.155Z,25.98
2019-06-20T09:55:50.039Z,25.98
2019-06-20T09:56:52.153Z,25.87
2019-06-20T09:57:50.795Z,25.76
2019-06-20T09:58:49.608Z,25.73
2019-06-20T10:00:03.251Z,25.65
2019-06-20T10:00:50.866Z,25.55
2019-06-20T10:01:51.293Z,25.39
2019-06-20T10:02:55.765Z,25.23
2019-06-20T10:03:50.442Z,25.18
2019-06-20T10:04:49.520Z,25.20
2019-06-20T10:05:50.641Z,25.10
2019-06-20T10:06:50.177Z,24.95
2019-06-20T10:07:50.307Z,24.90
2019-06-20T10:08:50.061Z,24.81
2019-06-20T10:09:49.915Z,24.68
2019-06-20T10:10:50.638Z,24.50
2019-06-20T10:11:49.720Z,24.18
2019-06-20T10:12:49.633Z,23.94
2019-06-20T10:13:54.320Z,23.73
2019-06-20T10:14:49.553Z,23.65
2019-06-20T10:15:49.435Z,23.48
2019-06-20T10:16:50.961Z,23.20
2019-06-20T10:17:50.069Z,22.95
2019-06-20T10:18:50.078Z,22.83
2019-06-20T10:19:49.887Z,22.73
2019-06-20T10:20:48.982Z,22.39
2019-06-20T10:21:49.601Z,22.14
2019-06-20T10:22:48.954Z,22.12
2019-06-20T10:23:49.693Z,22.00
2019-06-20T10:24:53.957Z,21.98
2019-06-20T10:25:49.319Z,21.84
2019-06-20T10:26:49.590Z,21.72
2019-06-20T10:27:49.707Z,21.65
2019-06-20T10:28:49.178Z,21.61
2019-06-20T10:29:49.000Z,21.47
2019-06-20T10:30:48.866Z,21.61
2019-06-20T10:31:49.051Z,21.62
2019-06-20T10:32:48.847Z,21.56
2019-06-20T10:33:48.842Z,21.44
2019-06-20T10:34:48.834Z,21.40
2019-06-20T10:35:53.846Z,21.46
2019-06-20T10:36:50.010Z,21.56
2019-06-20T10:37:50.246Z,21.67
2019-06-20T10:38:50.251Z,21.74
2019-06-20T10:39:49.956Z,21.90
2019-06-20T10:40:49.820Z,21.88
2019-06-20T10:41:50.182Z,21.92
2019-06-20T10:42:50.139Z,22.05
2019-06-20T10:43:49.557Z,22.05
2019-06-20T10:44:49.706Z,22.20
2019-06-20T10:45:49.453Z,22.31
2019-06-20T10:46:53.722Z,22.42
2019-06-20T10:47:48.975Z,22.31
2019-06-20T10:48:49.999Z,22.42
2019-06-20T10:49:50.387Z,22.36
2019-06-20T10:50:49.811Z,22.31
2019-06-20T10:51:49.629Z,22.31
2019-06-20T10:52:50.008Z,22.39
2019-06-20T10:53:49.212Z,22.31
2019-06-20T10:54:49.305Z,22.27
2019-06-20T10:55:49.056Z,22.31
2019-06-20T10:56:48.855Z,22.40
2019-06-20T10:57:53.594Z,22.51
2019-06-20T10:58:48.558Z,22.55
2019-06-20T10:59:48.559Z,22.65
2019-06-20T11:00:48.537Z,22.80
2019-06-20T11:01:48.563Z,22.85
2019-06-20T11:02:49.124Z,22.90
2019-06-20T11:03:49.910Z,22.86
2019-06-20T11:04:49.745Z,22.90
2019-06-20T11:05:49.799Z,22.95
2019-06-20T11:06:49.658Z,22.88
2019-06-20T11:07:49.922Z,22.92
2019-06-20T11:08:53.479Z,22.92
2019-06-20T11:09:49.471Z,22.95
2019-06-20T11:10:49.286Z,22.94
2019-06-20T11:11:49.060Z,23.00
2019-06-20T11:12:54.865Z,23.02
2019-06-20T11:13:49.401Z,23.07
2019-06-20T11:14:48.462Z,23.12
2019-06-20T11:15:48.390Z,23.13
2019-06-20T11:16:49.306Z,23.02
2019-06-20T11:17:48.534Z,22.92
2019-06-20T11:18:48.782Z,22.98
2019-06-20T11:19:53.369Z,22.97
2019-06-20T11:20:48.761Z,22.92
2019-06-20T11:21:48.312Z,22.98
2019-06-20T11:22:48.300Z,23.07
2019-06-20T11:23:48.286Z,23.17
2019-06-20T11:24:48.322Z,23.17
2019-06-20T11:25:48.376Z,23.17
2019-06-20T11:26:48.278Z,23.19
2019-06-20T11:27:48.254Z,23.28
2019-06-20T11:28:48.746Z,23.42
2019-06-20T11:29:48.223Z,23.48
2019-06-20T11:30:59.906Z,23.46
2019-06-20T11:31:49.628Z,23.39
2019-06-20T11:32:48.829Z,23.53
2019-06-20T11:33:48.459Z,23.57
2019-06-20T11:34:49.357Z,23.69
2019-06-20T11:35:48.180Z,23.69
2019-06-20T11:36:48.148Z,23.98
2019-06-20T11:37:48.137Z,24.31
2019-06-20T11:38:49.174Z,24.55
2019-06-20T11:39:51.139Z,24.80
2019-06-20T11:40:48.226Z,25.23
2019-06-20T11:41:53.121Z,25.47
2019-06-20T11:42:48.079Z,25.65
2019-06-20T11:43:48.072Z,26.12
2019-06-20T11:44:48.080Z,26.48
2019-06-20T11:45:48.064Z,26.76
2019-06-20T11:46:48.042Z,26.92
2019-06-20T11:47:48.034Z,26.80
2019-06-20T11:48:48.034Z,26.94
2019-06-20T11:49:48.001Z,26.97
2019-06-20T11:50:48.064Z,27.10
2019-06-20T11:51:47.987Z,27.60
2019-06-20T11:52:53.000Z,27.81
2019-06-20T11:53:47.995Z,27.19
2019-06-20T11:54:47.977Z,26.77
2019-06-20T11:55:47.949Z,26.77
2019-06-20T11:56:47.939Z,27.04
2019-06-20T11:57:47.945Z,27.13
2019-06-20T11:58:47.906Z,27.04
2019-06-20T11:59:47.907Z,26.89
2019-06-20T12:01:02.576Z,26.75
2019-06-20T12:01:49.114Z,26.65
2019-06-20T12:02:48.309Z,26.09
2019-06-20T12:03:48.959Z,25.95
2019-06-20T12:04:48.915Z,25.77
2019-06-20T12:05:52.868Z,25.50
2019-06-20T12:06:49.266Z,25.32
2019-06-20T12:07:49.574Z,25.33
2019-06-20T12:08:48.987Z,25.97
2019-06-20T12:09:49.148Z,26.57
2019-06-20T12:10:47.809Z,27.10
2019-06-20T12:11:48.861Z,27.36
2019-06-20T12:12:49.181Z,27.46
2019-06-20T12:13:48.550Z,27.44
2019-06-20T12:14:48.614Z,27.41
2019-06-20T12:15:48.997Z,27.27
2019-06-20T12:16:52.735Z,27.06
2019-06-20T12:17:49.113Z,26.72
2019-06-20T12:18:47.713Z,26.47
2019-06-20T12:19:48.762Z,26.37
2019-06-20T12:20:48.782Z,26.26
2019-06-20T12:21:49.017Z,26.20
2019-06-20T12:22:50.452Z,25.98
2019-06-20T12:23:48.996Z,26.02
2019-06-20T12:24:48.882Z,25.94
2019-06-20T12:25:48.759Z,25.72
2019-06-20T12:26:48.673Z,25.52
2019-06-20T12:27:47.782Z,25.60
2019-06-20T12:28:48.673Z,25.54
2019-06-20T12:29:52.599Z,25.75
2019-06-20T12:30:48.348Z,25.88
2019-06-20T12:31:48.478Z,25.85
2019-06-20T12:32:47.569Z,25.77
2019-06-20T12:33:47.534Z,25.70
2019-06-20T12:34:48.946Z,25.51
2019-06-20T12:35:48.658Z,25.55
2019-06-20T12:36:48.571Z,25.42
2019-06-20T12:37:47.947Z,25.33
2019-06-20T12:38:48.375Z,25.40
2019-06-20T12:39:48.666Z,25.32
2019-06-20T12:40:52.478Z,25.35
2019-06-20T12:41:47.616Z,25.39
2019-06-20T12:42:47.456Z,25.32
2019-06-20T12:43:48.307Z,25.20
2019-06-20T12:44:47.438Z,25.10
2019-06-20T12:45:47.500Z,24.96
2019-06-20T12:46:47.396Z,24.90
2019-06-20T12:47:47.402Z,24.81
2019-06-20T12:48:47.386Z,24.83
2019-06-20T12:49:47.375Z,24.76
2019-06-20T12:50:47.641Z,24.73
2019-06-20T12:51:52.400Z,24.73
2019-06-20T12:52:47.751Z,24.67